sensor_id;sensor_type;location;lat;lon;timestamp;pressure;altitude;pressure_sealevel;temperature;humidity
47104;BME280;32853;52.164;5.400;2023-07-31T00:02:34;100844.44;;;18.63;100.00
47104;BME280;32853;52.164;5.400;2023-07-31T00:05:01;100790.66;;;18.26;100.00
47104;BME280;32853;52.164;5.400;2023-07-31T00:07:26;100823.28;;;18.50;100.00
47104;BME280;32853;52.164;5.400;2023-07-31T00:09:55;100850.03;;;18.71;100.00
47104;BME280;32853;52.164;5.400;2023-07-31T00:12:27;100815.72;;;18.57;100.00
47104;BME280;32853;52.164;5.400;2023-07-31T00:14:54;100814.72;;;18.47;100.00
47104;BME280;32853;52.164;5.400;2023-07-31T00:17:21;100786.91;;;18.28;100.00
47104;BME280;32853;52.164;5.400;2023-07-31T00:19:46;100843.50;;;18.64;100.00
47104;BME280;32853;52.164;5.400;2023-07-31T00:22:14;100836.06;;;18.69;100.00
47104;BME280;32853;52.164;5.400;2023-07-31T00:24:39;100724.03;;;18.08;100.00
47104;BME280;32853;52.164;5.400;2023-07-31T00:27:05;100839.94;;;18.76;100.00
47104;BME280;32853;52.164;5.400;2023-07-31T00:29:34;100845.31;;;18.88;100.00
47104;BME280;32853;52.164;5.400;2023-07-31T00:31:59;100835.66;;;18.86;100.00
47104;BME280;32853;52.164;5.400;2023-07-31T00:34:27;100659.50;;;17.98;100.00
47104;BME280;32853;52.164;5.400;2023-07-31T00:36:52;100802.66;;;18.91;100.00
47104;BME280;32853;52.164;5.400;2023-07-31T00:39:19;100716.50;;;18.50;100.00
47104;BME280;32853;52.164;5.400;2023-07-31T00:41:52;100837.19;;;19.13;100.00
47104;BME280;32853;52.164;5.400;2023-07-31T00:44:27;100828.53;;;19.22;100.00
47104;BME280;32853;52.164;5.400;2023-07-31T00:46:53;100722.66;;;18.62;100.00
47104;BME280;32853;52.164;5.400;2023-07-31T00:49:20;100762.06;;;18.90;100.00
47104;BME280;32853;52.164;5.400;2023-07-31T00:51:46;100811.06;;;19.20;100.00
47104;BME280;32853;52.164;5.400;2023-07-31T00:54:11;100760.25;;;18.91;100.00
47104;BME280;32853;52.164;5.400;2023-07-31T00:56:37;100787.41;;;19.16;100.00
47104;BME280;32853;52.164;5.400;2023-07-31T00:59:03;100833.00;;;19.22;100.00
47104;BME280;32853;52.164;5.400;2023-07-31T01:01:34;100793.22;;;19.10;100.00
47104;BME280;32853;52.164;5.400;2023-07-31T01:03:59;100818.31;;;19.29;100.00
47104;BME280;32853;52.164;5.400;2023-07-31T01:09:07;100761.16;;;19.13;100.00
47104;BME280;32853;52.164;5.400;2023-07-31T01:11:48;100713.78;;;18.98;100.00
47104;BME280;32853;52.164;5.400;2023-07-31T01:14:19;100776.22;;;19.13;100.00
47104;BME280;32853;52.164;5.400;2023-07-31T01:16:45;100734.38;;;19.05;100.00
47104;BME280;32853;52.164;5.400;2023-07-31T01:19:10;100738.38;;;19.11;100.00
47104;BME280;32853;52.164;5.400;2023-07-31T01:27:10;100815.53;;;19.19;100.00
47104;BME280;32853;52.164;5.400;2023-07-31T01:32:03;100718.81;;;18.78;100.00
47104;BME280;32853;52.164;5.400;2023-07-31T01:34:31;100705.22;;;18.59;100.00
47104;BME280;32853;52.164;5.400;2023-07-31T01:36:57;100626.44;;;18.04;100.00
47104;BME280;32853;52.164;5.400;2023-07-31T01:39:23;100782.34;;;19.02;100.00
47104;BME280;32853;52.164;5.400;2023-07-31T01:41:49;100732.44;;;18.61;100.00
47104;BME280;32853;52.164;5.400;2023-07-31T01:44:14;100793.28;;;18.98;100.00
47104;BME280;32853;52.164;5.400;2023-07-31T01:46:39;100690.25;;;18.47;100.00
47104;BME280;32853;52.164;5.400;2023-07-31T01:49:05;100724.31;;;18.64;100.00
47104;BME280;32853;52.164;5.400;2023-07-31T01:51:31;100719.25;;;18.72;100.00
47104;BME280;32853;52.164;5.400;2023-07-31T01:53:59;100702.19;;;18.76;100.00
47104;BME280;32853;52.164;5.400;2023-07-31T01:56:25;100694.09;;;18.78;100.00
47104;BME280;32853;52.164;5.400;2023-07-31T01:58:50;100684.81;;;18.83;100.00
47104;BME280;32853;52.164;5.400;2023-07-31T02:01:15;100641.97;;;18.43;100.00
47104;BME280;32853;52.164;5.400;2023-07-31T02:03:41;100782.53;;;19.34;100.00
47104;BME280;32853;52.164;5.400;2023-07-31T02:06:07;100634.88;;;18.44;100.00
47104;BME280;32853;52.164;5.400;2023-07-31T02:08:32;100623.09;;;18.48;100.00
47104;BME280;32853;52.164;5.400;2023-07-31T02:10:58;100663.03;;;18.80;100.00
47104;BME280;32853;52.164;5.400;2023-07-31T02:13:23;100694.50;;;18.96;100.00
47104;BME280;32853;52.164;5.400;2023-07-31T02:15:48;100706.56;;;19.00;100.00
47104;BME280;32853;52.164;5.400;2023-07-31T02:18:16;100589.50;;;18.48;100.00
47104;BME280;32853;52.164;5.400;2023-07-31T02:20:42;100768.78;;;19.40;100.00
47104;BME280;32853;52.164;5.400;2023-07-31T02:23:07;100716.47;;;19.20;100.00
47104;BME280;32853;52.164;5.400;2023-07-31T02:25:35;100684.41;;;19.12;100.00
47104;BME280;32853;52.164;5.400;2023-07-31T02:28:01;100739.00;;;19.48;100.00
47104;BME280;32853;52.164;5.400;2023-07-31T02:30:26;100761.72;;;19.63;100.00
47104;BME280;32853;52.164;5.400;2023-07-31T02:32:51;100666.22;;;19.07;100.00
47104;BME280;32853;52.164;5.400;2023-07-31T02:35:17;100707.78;;;19.18;100.00
47104;BME280;32853;52.164;5.400;2023-07-31T02:37:43;100648.59;;;18.95;100.00
47104;BME280;32853;52.164;5.400;2023-07-31T02:40:09;100745.88;;;19.51;100.00
47104;BME280;32853;52.164;5.400;2023-07-31T02:42:34;100748.06;;;19.45;100.00
47104;BME280;32853;52.164;5.400;2023-07-31T02:45:00;100500.38;;;18.03;100.00
47104;BME280;32853;52.164;5.400;2023-07-31T02:47:27;100653.78;;;18.97;100.00
47104;BME280;32853;52.164;5.400;2023-07-31T02:49:54;100669.31;;;18.79;100.00
47104;BME280;32853;52.164;5.400;2023-07-31T02:52:21;100691.59;;;18.88;100.00
47104;BME280;32853;52.164;5.400;2023-07-31T02:54:46;100726.38;;;19.29;100.00
47104;BME280;32853;52.164;5.400;2023-07-31T02:57:11;100635.72;;;18.91;100.00
47104;BME280;32853;52.164;5.400;2023-07-31T02:59:37;100736.50;;;19.58;100.00
47104;BME280;32853;52.164;5.400;2023-07-31T03:02:02;100557.84;;;18.47;100.00
47104;BME280;32853;52.164;5.400;2023-07-31T03:04:36;100599.56;;;18.67;100.00
47104;BME280;32853;52.164;5.400;2023-07-31T03:07:01;100654.75;;;18.96;100.00
47104;BME280;32853;52.164;5.400;2023-07-31T03:09:34;100714.16;;;19.49;100.00
47104;BME280;32853;52.164;5.400;2023-07-31T03:12:00;100734.44;;;19.72;100.00
47104;BME280;32853;52.164;5.400;2023-07-31T03:14:34;100742.19;;;19.64;100.00
47104;BME280;32853;52.164;5.400;2023-07-31T03:16:59;100665.13;;;19.10;100.00
47104;BME280;32853;52.164;5.400;2023-07-31T03:19:24;100734.78;;;19.45;100.00
47104;BME280;32853;52.164;5.400;2023-07-31T03:21:50;100475.56;;;17.92;100.00
47104;BME280;32853;52.164;5.400;2023-07-31T03:24:16;100574.84;;;18.55;100.00
47104;BME280;32853;52.164;5.400;2023-07-31T03:26:41;100678.25;;;19.23;100.00
47104;BME280;32853;52.164;5.400;2023-07-31T03:29:16;100673.41;;;18.94;100.00
47104;BME280;32853;52.164;5.400;2023-07-31T03:31:41;100727.09;;;19.42;100.00
47104;BME280;32853;52.164;5.400;2023-07-31T03:34:07;100728.25;;;19.50;100.00
47104;BME280;32853;52.164;5.400;2023-07-31T03:36:36;100614.25;;;18.71;100.00
47104;BME280;32853;52.164;5.400;2023-07-31T03:39:01;100642.22;;;18.75;100.00
47104;BME280;32853;52.164;5.400;2023-07-31T03:41:27;100730.44;;;19.33;100.00
47104;BME280;32853;52.164;5.400;2023-07-31T03:43:52;100556.97;;;18.24;100.00
47104;BME280;32853;52.164;5.400;2023-07-31T03:46:22;100676.06;;;19.05;100.00
47104;BME280;32853;52.164;5.400;2023-07-31T03:48:50;100730.19;;;19.36;100.00
47104;BME280;32853;52.164;5.400;2023-07-31T03:51:16;100720.44;;;19.37;100.00
47104;BME280;32853;52.164;5.400;2023-07-31T03:53:44;100741.19;;;19.32;100.00
47104;BME280;32853;52.164;5.400;2023-07-31T03:56:18;100715.50;;;19.32;100.00
47104;BME280;32853;52.164;5.400;2023-07-31T03:58:48;100661.63;;;18.98;100.00
47104;BME280;32853;52.164;5.400;2023-07-31T04:01:21;100712.84;;;19.32;100.00
47104;BME280;32853;52.164;5.400;2023-07-31T04:03:49;100678.84;;;19.04;100.00
47104;BME280;32853;52.164;5.400;2023-07-31T04:06:17;100672.84;;;19.24;100.00
47104;BME280;32853;52.164;5.400;2023-07-31T04:08:44;100712.72;;;19.23;100.00
47104;BME280;32853;52.164;5.400;2023-07-31T04:11:12;100459.56;;;17.83;100.00
47104;BME280;32853;52.164;5.400;2023-07-31T04:13:40;100646.19;;;18.92;100.00
47104;BME280;32853;52.164;5.400;2023-07-31T04:16:11;100532.44;;;18.44;100.00
47104;BME280;32853;52.164;5.400;2023-07-31T04:18:45;100691.88;;;19.29;100.00
47104;BME280;32853;52.164;5.400;2023-07-31T04:21:14;100691.03;;;19.29;100.00
47104;BME280;32853;52.164;5.400;2023-07-31T04:23:39;100627.16;;;18.98;100.00
47104;BME280;32853;52.164;5.400;2023-07-31T04:26:04;100420.84;;;17.82;100.00
47104;BME280;32853;52.164;5.400;2023-07-31T04:28:30;100599.19;;;18.83;100.00
47104;BME280;32853;52.164;5.400;2023-07-31T04:30:57;100455.22;;;17.82;100.00
47104;BME280;32853;52.164;5.400;2023-07-31T04:33:22;100601.19;;;18.57;100.00
47104;BME280;32853;52.164;5.400;2023-07-31T04:35:52;100648.72;;;18.94;100.00
47104;BME280;32853;52.164;5.400;2023-07-31T04:38:21;100687.16;;;19.10;100.00
47104;BME280;32853;52.164;5.400;2023-07-31T04:40:47;100606.09;;;18.50;100.00
47104;BME280;32853;52.164;5.400;2023-07-31T04:43:28;100700.88;;;18.93;100.00
47104;BME280;32853;52.164;5.400;2023-07-31T04:45:54;100659.41;;;18.81;100.00
47104;BME280;32853;52.164;5.400;2023-07-31T04:48:19;100513.81;;;17.88;100.00
47104;BME280;32853;52.164;5.400;2023-07-31T04:50:44;100606.34;;;18.47;100.00
47104;BME280;32853;52.164;5.400;2023-07-31T04:53:11;100687.75;;;18.92;100.00
47104;BME280;32853;52.164;5.400;2023-07-31T04:55:36;100618.53;;;18.61;100.00
47104;BME280;32853;52.164;5.400;2023-07-31T04:58:03;100616.97;;;18.58;100.00
47104;BME280;32853;52.164;5.400;2023-07-31T05:00:31;100670.03;;;18.92;100.00
47104;BME280;32853;52.164;5.400;2023-07-31T05:02:57;100484.34;;;17.58;100.00
47104;BME280;32853;52.164;5.400;2023-07-31T05:05:30;100574.44;;;18.38;100.00
47104;BME280;32853;52.164;5.400;2023-07-31T05:07:55;100566.22;;;18.18;100.00
47104;BME280;32853;52.164;5.400;2023-07-31T05:10:25;100636.09;;;18.51;100.00
47104;BME280;32853;52.164;5.400;2023-07-31T05:12:58;100570.28;;;18.11;100.00
47104;BME280;32853;52.164;5.400;2023-07-31T05:15:25;100552.41;;;17.91;100.00
47104;BME280;32853;52.164;5.400;2023-07-31T05:18:04;100575.63;;;18.22;100.00
47104;BME280;32853;52.164;5.400;2023-07-31T05:20:29;100652.00;;;18.62;100.00
47104;BME280;32853;52.164;5.400;2023-07-31T05:22:56;100468.06;;;17.51;100.00
47104;BME280;32853;52.164;5.400;2023-07-31T05:25:33;100646.16;;;18.70;100.00
47104;BME280;32853;52.164;5.400;2023-07-31T05:27:58;100543.47;;;18.16;100.00
47104;BME280;32853;52.164;5.400;2023-07-31T05:30:30;100613.72;;;18.55;100.00
47104;BME280;32853;52.164;5.400;2023-07-31T05:33:11;100644.97;;;18.74;100.00
47104;BME280;32853;52.164;5.400;2023-07-31T05:35:36;100562.66;;;18.42;100.00
47104;BME280;32853;52.164;5.400;2023-07-31T05:38:06;100560.22;;;18.39;100.00
47104;BME280;32853;52.164;5.400;2023-07-31T05:40:33;100567.47;;;18.48;100.00
47104;BME280;32853;52.164;5.400;2023-07-31T05:42:58;100642.38;;;18.61;100.00
47104;BME280;32853;52.164;5.400;2023-07-31T05:45:28;100453.19;;;17.74;100.00
47104;BME280;32853;52.164;5.400;2023-07-31T05:47:54;100531.56;;;18.10;100.00
47104;BME280;32853;52.164;5.400;2023-07-31T05:50:43;100622.38;;;18.57;100.00
47104;BME280;32853;52.164;5.400;2023-07-31T05:53:09;100604.66;;;18.46;100.00
47104;BME280;32853;52.164;5.400;2023-07-31T05:55:35;100623.03;;;18.72;100.00
47104;BME280;32853;52.164;5.400;2023-07-31T05:58:00;100558.56;;;18.38;100.00
47104;BME280;32853;52.164;5.400;2023-07-31T06:00:26;100520.59;;;18.15;100.00
47104;BME280;32853;52.164;5.400;2023-07-31T06:02:52;100521.66;;;18.01;100.00
47104;BME280;32853;52.164;5.400;2023-07-31T06:05:18;100602.22;;;18.67;100.00
47104;BME280;32853;52.164;5.400;2023-07-31T06:07:43;100437.13;;;17.64;100.00
47104;BME280;32853;52.164;5.400;2023-07-31T06:10:08;100544.81;;;18.21;100.00
47104;BME280;32853;52.164;5.400;2023-07-31T06:12:36;100504.59;;;18.16;100.00
47104;BME280;32853;52.164;5.400;2023-07-31T06:15:04;100540.41;;;18.44;100.00
47104;BME280;32853;52.164;5.400;2023-07-31T06:17:30;100592.72;;;18.76;100.00
47104;BME280;32853;52.164;5.400;2023-07-31T06:19:56;100593.06;;;18.71;100.00
47104;BME280;32853;52.164;5.400;2023-07-31T06:22:23;100596.19;;;18.76;100.00
47104;BME280;32853;52.164;5.400;2023-07-31T06:24:59;100599.31;;;18.81;100.00
47104;BME280;32853;52.164;5.400;2023-07-31T06:27:25;100596.69;;;18.81;100.00
47104;BME280;32853;52.164;5.400;2023-07-31T06:29:56;100542.34;;;18.53;100.00
47104;BME280;32853;52.164;5.400;2023-07-31T06:32:21;100588.25;;;18.99;100.00
47104;BME280;32853;52.164;5.400;2023-07-31T06:34:47;100453.72;;;18.02;100.00
47104;BME280;32853;52.164;5.400;2023-07-31T06:37:12;100402.09;;;17.74;100.00
47104;BME280;32853;52.164;5.400;2023-07-31T06:39:44;100272.25;;;17.08;100.00
47104;BME280;32853;52.164;5.400;2023-07-31T06:42:10;100577.53;;;19.00;100.00
47104;BME280;32853;52.164;5.400;2023-07-31T06:44:35;100514.25;;;18.51;100.00
47104;BME280;32853;52.164;5.400;2023-07-31T06:47:01;100375.53;;;17.75;100.00
47104;BME280;32853;52.164;5.400;2023-07-31T06:49:26;100515.34;;;18.59;100.00
47104;BME280;32853;52.164;5.400;2023-07-31T06:51:51;100509.94;;;18.61;100.00
47104;BME280;32853;52.164;5.400;2023-07-31T06:54:25;100521.41;;;18.73;100.00
47104;BME280;32853;52.164;5.400;2023-07-31T06:56:50;100392.94;;;17.78;100.00
47104;BME280;32853;52.164;5.400;2023-07-31T06:59:15;100368.78;;;17.93;100.00
47104;BME280;32853;52.164;5.400;2023-07-31T07:01:49;100515.50;;;18.92;100.00
47104;BME280;32853;52.164;5.400;2023-07-31T07:04:16;100554.75;;;19.09;100.00
47104;BME280;32853;52.164;5.400;2023-07-31T07:06:42;100398.97;;;18.02;100.00
47104;BME280;32853;52.164;5.400;2023-07-31T07:09:07;100458.19;;;18.46;100.00
47104;BME280;32853;52.164;5.400;2023-07-31T07:11:37;100449.28;;;18.58;100.00
47104;BME280;32853;52.164;5.400;2023-07-31T07:14:04;100491.66;;;18.80;100.00
47104;BME280;32853;52.164;5.400;2023-07-31T07:16:34;100526.59;;;18.97;100.00
47104;BME280;32853;52.164;5.400;2023-07-31T07:19:00;100545.72;;;19.11;100.00
47104;BME280;32853;52.164;5.400;2023-07-31T07:21:25;100480.47;;;18.88;100.00
47104;BME280;32853;52.164;5.400;2023-07-31T07:23:51;100535.50;;;19.07;100.00
47104;BME280;32853;52.164;5.400;2023-07-31T07:26:19;100387.56;;;18.24;100.00
47104;BME280;32853;52.164;5.400;2023-07-31T07:28:46;100379.47;;;18.48;100.00
47104;BME280;32853;52.164;5.400;2023-07-31T07:31:11;100375.66;;;18.29;100.00
47104;BME280;32853;52.164;5.400;2023-07-31T07:33:36;100388.75;;;18.42;100.00
47104;BME280;32853;52.164;5.400;2023-07-31T07:36:03;100541.34;;;19.33;100.00
47104;BME280;32853;52.164;5.400;2023-07-31T07:38:36;100541.34;;;19.33;100.00
47104;BME280;32853;52.164;5.400;2023-07-31T07:41:02;100487.19;;;18.92;100.00
47104;BME280;32853;52.164;5.400;2023-07-31T07:43:50;100538.28;;;19.37;100.00
47104;BME280;32853;52.164;5.400;2023-07-31T07:46:19;100508.34;;;19.14;100.00
47104;BME280;32853;52.164;5.400;2023-07-31T07:48:48;100542.88;;;19.35;100.00
47104;BME280;32853;52.164;5.400;2023-07-31T07:51:13;100539.38;;;19.46;100.00
47104;BME280;32853;52.164;5.400;2023-07-31T07:53:41;100456.91;;;19.06;100.00
47104;BME280;32853;52.164;5.400;2023-07-31T07:56:06;100381.28;;;18.36;100.00
47104;BME280;32853;52.164;5.400;2023-07-31T07:58:34;100514.44;;;19.37;100.00
47104;BME280;32853;52.164;5.400;2023-07-31T08:00:59;100536.97;;;19.43;100.00
47104;BME280;32853;52.164;5.400;2023-07-31T08:03:24;100534.44;;;19.41;100.00
47104;BME280;32853;52.164;5.400;2023-07-31T08:05:50;100513.84;;;19.34;100.00
47104;BME280;32853;52.164;5.400;2023-07-31T08:08:19;100364.91;;;18.53;100.00
47104;BME280;32853;52.164;5.400;2023-07-31T08:10:46;100524.88;;;19.61;100.00
47104;BME280;32853;52.164;5.400;2023-07-31T08:13:11;100388.44;;;18.90;100.00
47104;BME280;32853;52.164;5.400;2023-07-31T08:15:48;100518.78;;;19.70;100.00
47104;BME280;32853;52.164;5.400;2023-07-31T08:18:14;100514.19;;;19.72;100.00
47104;BME280;32853;52.164;5.400;2023-07-31T08:20:39;100327.00;;;18.53;100.00
47104;BME280;32853;52.164;5.400;2023-07-31T08:23:04;100277.97;;;18.04;100.00
47104;BME280;32853;52.164;5.400;2023-07-31T08:25:30;100512.34;;;19.52;100.00
47104;BME280;32853;52.164;5.400;2023-07-31T08:27:55;100377.50;;;18.61;100.00
47104;BME280;32853;52.164;5.400;2023-07-31T08:30:21;100340.22;;;18.64;100.00
47104;BME280;32853;52.164;5.400;2023-07-31T08:32:46;100517.28;;;19.57;100.00
47104;BME280;32853;52.164;5.400;2023-07-31T08:35:13;100466.03;;;19.24;100.00
47104;BME280;32853;52.164;5.400;2023-07-31T08:37:38;100248.38;;;18.10;100.00
47104;BME280;32853;52.164;5.400;2023-07-31T08:40:05;100214.84;;;17.99;100.00
47104;BME280;32853;52.164;5.400;2023-07-31T08:42:31;100407.34;;;19.17;100.00
47104;BME280;32853;52.164;5.400;2023-07-31T08:44:56;100503.34;;;19.76;100.00
47104;BME280;32853;52.164;5.400;2023-07-31T08:47:23;100477.00;;;19.63;100.00
47104;BME280;32853;52.164;5.400;2023-07-31T08:49:49;100491.91;;;19.75;100.00
47104;BME280;32853;52.164;5.400;2023-07-31T08:52:16;100344.75;;;19.05;100.00
47104;BME280;32853;52.164;5.400;2023-07-31T08:54:41;100419.09;;;19.68;100.00
47104;BME280;32853;52.164;5.400;2023-07-31T08:57:07;100507.81;;;20.17;100.00
47104;BME280;32853;52.164;5.400;2023-07-31T08:59:35;100287.00;;;18.56;100.00
47104;BME280;32853;52.164;5.400;2023-07-31T09:02:05;100389.78;;;19.37;100.00
47104;BME280;32853;52.164;5.400;2023-07-31T09:04:32;100454.53;;;19.67;100.00
47104;BME280;32853;52.164;5.400;2023-07-31T09:07:02;100444.06;;;19.65;100.00
47104;BME280;32853;52.164;5.400;2023-07-31T09:09:32;100504.50;;;20.24;100.00
47104;BME280;32853;52.164;5.400;2023-07-31T09:11:58;100428.22;;;19.75;100.00
47104;BME280;32853;52.164;5.400;2023-07-31T09:14:27;100519.16;;;20.19;100.00
47104;BME280;32853;52.164;5.400;2023-07-31T09:16:57;100495.88;;;20.32;100.00
47104;BME280;32853;52.164;5.400;2023-07-31T09:19:29;100497.38;;;20.25;100.00
47104;BME280;32853;52.164;5.400;2023-07-31T09:21:54;100470.69;;;20.26;100.00
47104;BME280;32853;52.164;5.400;2023-07-31T09:24:30;100513.31;;;20.46;100.00
47104;BME280;32853;52.164;5.400;2023-07-31T09:27:01;100430.25;;;19.92;100.00
47104;BME280;32853;52.164;5.400;2023-07-31T09:29:28;100497.03;;;20.39;100.00
47104;BME280;32853;52.164;5.400;2023-07-31T09:31:55;100472.25;;;20.29;100.00
47104;BME280;32853;52.164;5.400;2023-07-31T09:34:37;100404.88;;;19.99;100.00
47104;BME280;32853;52.164;5.400;2023-07-31T09:37:11;100483.88;;;20.58;100.00
47104;BME280;32853;52.164;5.400;2023-07-31T09:39:47;100460.13;;;20.36;100.00
47104;BME280;32853;52.164;5.400;2023-07-31T09:42:13;100498.53;;;20.53;100.00
47104;BME280;32853;52.164;5.400;2023-07-31T09:44:45;100487.13;;;20.62;100.00
47104;BME280;32853;52.164;5.400;2023-07-31T09:47:21;100380.16;;;19.99;100.00
47104;BME280;32853;52.164;5.400;2023-07-31T09:49:52;100396.78;;;20.01;100.00
47104;BME280;32853;52.164;5.400;2023-07-31T09:52:17;100485.81;;;20.56;100.00
47104;BME280;32853;52.164;5.400;2023-07-31T09:54:46;100312.81;;;19.69;100.00
47104;BME280;32853;52.164;5.400;2023-07-31T09:57:17;100406.56;;;20.31;100.00
47104;BME280;32853;52.164;5.400;2023-07-31T09:59:47;100384.34;;;20.01;100.00
47104;BME280;32853;52.164;5.400;2023-07-31T10:02:15;100499.53;;;20.52;100.00
47104;BME280;32853;52.164;5.400;2023-07-31T10:04:53;100489.31;;;20.57;100.00
47104;BME280;32853;52.164;5.400;2023-07-31T10:07:28;100472.50;;;20.87;100.00
47104;BME280;32853;52.164;5.400;2023-07-31T10:09:57;100420.19;;;20.47;100.00
47104;BME280;32853;52.164;5.400;2023-07-31T10:12:26;100475.03;;;20.98;100.00
47104;BME280;32853;52.164;5.400;2023-07-31T10:14:54;100498.69;;;21.01;100.00
47104;BME280;32853;52.164;5.400;2023-07-31T10:17:21;100458.06;;;20.80;100.00
47104;BME280;32853;52.164;5.400;2023-07-31T10:19:48;100313.34;;;19.94;100.00
47104;BME280;32853;52.164;5.400;2023-07-31T10:22:14;100236.06;;;19.26;100.00
47104;BME280;32853;52.164;5.400;2023-07-31T10:24:48;100470.47;;;20.70;100.00
47104;BME280;32853;52.164;5.400;2023-07-31T10:27:14;100443.41;;;20.45;100.00
47104;BME280;32853;52.164;5.400;2023-07-31T10:29:45;100495.78;;;20.64;100.00
47104;BME280;32853;52.164;5.400;2023-07-31T10:32:14;100447.09;;;20.54;100.00
47104;BME280;32853;52.164;5.400;2023-07-31T10:34:41;100479.56;;;20.67;100.00
47104;BME280;32853;52.164;5.400;2023-07-31T10:37:25;100389.84;;;20.10;100.00
47104;BME280;32853;52.164;5.400;2023-07-31T10:40:06;100306.44;;;19.51;100.00
47104;BME280;32853;52.164;5.400;2023-07-31T10:42:34;100452.69;;;20.60;100.00
47104;BME280;32853;52.164;5.400;2023-07-31T10:45:05;100473.50;;;20.96;100.00
47104;BME280;32853;52.164;5.400;2023-07-31T10:47:31;100344.81;;;19.98;100.00
47104;BME280;32853;52.164;5.400;2023-07-31T10:50:32;100450.75;;;20.72;100.00
47104;BME280;32853;52.164;5.400;2023-07-31T10:52:58;100484.53;;;20.91;100.00
47104;BME280;32853;52.164;5.400;2023-07-31T10:55:33;100436.22;;;20.67;100.00
47104;BME280;32853;52.164;5.400;2023-07-31T10:58:08;100322.16;;;19.94;100.00
47104;BME280;32853;52.164;5.400;2023-07-31T11:00:37;100473.16;;;20.79;100.00
47104;BME280;32853;52.164;5.400;2023-07-31T11:03:08;100305.06;;;19.78;100.00
47104;BME280;32853;52.164;5.400;2023-07-31T11:06:03;100473.50;;;20.96;100.00
47104;BME280;32853;52.164;5.400;2023-07-31T11:08:34;100472.78;;;20.94;100.00
47104;BME280;32853;52.164;5.400;2023-07-31T11:16:06;100315.91;;;20.05;100.00
47104;BME280;32853;52.164;5.400;2023-07-31T11:18:31;100379.94;;;20.42;100.00
47104;BME280;32853;52.164;5.400;2023-07-31T11:20:57;100321.34;;;20.03;100.00
47104;BME280;32853;52.164;5.400;2023-07-31T11:23:23;100319.19;;;20.18;100.00
47104;BME280;32853;52.164;5.400;2023-07-31T11:25:49;100374.41;;;20.65;100.00
47104;BME280;32853;52.164;5.400;2023-07-31T11:28:16;100382.94;;;20.68;100.00
47104;BME280;32853;52.164;5.400;2023-07-31T11:30:42;100374.53;;;20.53;100.00
47104;BME280;32853;52.164;5.400;2023-07-31T11:33:16;100358.06;;;20.39;100.00
47104;BME280;32853;52.164;5.400;2023-07-31T11:35:47;100332.75;;;20.35;100.00
47104;BME280;32853;52.164;5.400;2023-07-31T11:38:33;100468.78;;;21.18;100.00
47104;BME280;32853;52.164;5.400;2023-07-31T11:41:01;100324.66;;;20.36;100.00
47104;BME280;32853;52.164;5.400;2023-07-31T11:43:29;100271.22;;;20.10;100.00
47104;BME280;32853;52.164;5.400;2023-07-31T11:45:57;100482.91;;;21.09;100.00
47104;BME280;32853;52.164;5.400;2023-07-31T11:50:58;100417.91;;;20.83;100.00
47104;BME280;32853;52.164;5.400;2023-07-31T11:53:44;100400.63;;;21.08;100.00
47104;BME280;32853;52.164;5.400;2023-07-31T11:56:19;100385.34;;;21.00;100.00
47104;BME280;32853;52.164;5.400;2023-07-31T11:58:47;100456.22;;;21.30;100.00
47104;BME280;32853;52.164;5.400;2023-07-31T12:01:22;100460.97;;;21.27;100.00
47104;BME280;32853;52.164;5.400;2023-07-31T12:03:49;100368.66;;;20.69;100.00
47104;BME280;32853;52.164;5.400;2023-07-31T12:06:15;100429.25;;;20.95;100.00
47104;BME280;32853;52.164;5.400;2023-07-31T12:08:41;100374.22;;;20.56;100.00
47104;BME280;32853;52.164;5.400;2023-07-31T12:11:12;100370.91;;;20.64;100.00
47104;BME280;32853;52.164;5.400;2023-07-31T12:13:43;100434.84;;;20.82;100.00
47104;BME280;32853;52.164;5.400;2023-07-31T12:16:12;100457.28;;;21.08;100.00
47104;BME280;32853;52.164;5.400;2023-07-31T12:18:38;100372.72;;;20.64;100.00
47104;BME280;32853;52.164;5.400;2023-07-31T12:21:19;100489.31;;;20.97;100.00
47104;BME280;32853;52.164;5.400;2023-07-31T12:23:44;100212.66;;;19.62;100.00
47104;BME280;32853;52.164;5.400;2023-07-31T12:26:13;100255.22;;;19.91;100.00
47104;BME280;32853;52.164;5.400;2023-07-31T12:28:46;100459.28;;;21.26;100.00
47104;BME280;32853;52.164;5.400;2023-07-31T12:31:16;100399.19;;;20.75;100.00
47104;BME280;32853;52.164;5.400;2023-07-31T12:33:45;100349.34;;;20.57;100.00
47104;BME280;32853;52.164;5.400;2023-07-31T12:36:14;100451.38;;;21.05;100.00
47104;BME280;32853;52.164;5.400;2023-07-31T12:38:40;100342.63;;;20.53;100.00
47104;BME280;32853;52.164;5.400;2023-07-31T12:41:07;100446.53;;;21.20;100.00
47104;BME280;32853;52.164;5.400;2023-07-31T12:43:38;100233.19;;;20.00;100.00
47104;BME280;32853;52.164;5.400;2023-07-31T12:46:04;100430.56;;;21.20;100.00
47104;BME280;32853;52.164;5.400;2023-07-31T12:48:37;100340.97;;;20.72;100.00
47104;BME280;32853;52.164;5.400;2023-07-31T12:51:06;100387.31;;;20.98;100.00
47104;BME280;32853;52.164;5.400;2023-07-31T12:53:33;100339.72;;;20.66;100.00
47104;BME280;32853;52.164;5.400;2023-07-31T12:55:59;100427.13;;;21.29;100.00
47104;BME280;32853;52.164;5.400;2023-07-31T12:58:24;100425.69;;;21.34;100.00
47104;BME280;32853;52.164;5.400;2023-07-31T13:00:50;100351.22;;;20.86;100.00
47104;BME280;32853;52.164;5.400;2023-07-31T13:06:15;100424.00;;;21.53;100.00
47104;BME280;32853;52.164;5.400;2023-07-31T13:08:57;100389.16;;;21.36;100.00